EWG9TL LEPA-EDDS
Flight info
| Callsign | EWG9TL |
|---|---|
| Flight time | 1h 35m |
| Altitude | 36000 |
| Route | MEROS N853 LUMAS DCT UNANA DCT STP DCT RAPED DCT PIGOS DCT EKSID DCT NOSTA DCT NOPMU DCT PEPAG/N0353F180 N851 UTAVO DCT SOPER N851 ROMIR T125 REUTL REUTL5A |
| Aircraft | A320/M-SDE3FGHIRWY/LB1 |
Departure
| Time | 2026-05-05 12:31 |
|---|---|
| Airport | Palma de Mallorca Airport (LEPA) |
Arrival
| Time | 2026-05-05 14:06 |
|---|---|
| Airport | Stuttgart Airport (EDDS) |
| Time | Latitude | Longitude | Altitude | Speed | Heading |
|---|---|---|---|---|---|
| 2026-05-05 11:28 | 39.54865 | 2.73534 | 39 ft | 0 kts | 46° |
| 2026-05-05 12:19 | 39.54860 | 2.73527 | 66 ft | 2 kts | 42° |
| 2026-05-05 12:19 | 39.54842 | 2.73508 | 38 ft | 4 kts | 31° |
| 2026-05-05 12:19 | 39.54818 | 2.73496 | 38 ft | 4 kts | 3° |
| 2026-05-05 12:19 | 39.54791 | 2.73498 | 38 ft | 4 kts | 351° |
| 2026-05-05 12:20 | 39.54774 | 2.73498 | 38 ft | 1 kts | 10° |
| 2026-05-05 12:20 | 39.54771 | 2.73498 | 38 ft | 0 kts | 10° |
| 2026-05-05 12:23 | 39.54775 | 2.73500 | 38 ft | 1 kts | 20° |
| 2026-05-05 12:23 | 39.54778 | 2.73512 | 34 ft | 1 kts | 91° |
| 2026-05-05 12:23 | 39.54766 | 2.73532 | 38 ft | 4 kts | 131° |
| 2026-05-05 12:23 | 39.54726 | 2.73565 | 38 ft | 9 kts | 149° |
| 2026-05-05 12:24 | 39.54669 | 2.73610 | 38 ft | 9 kts | 148° |
| 2026-05-05 12:24 | 39.54665 | 2.73685 | 36 ft | 12 kts | 64° |
| 2026-05-05 12:24 | 39.54721 | 2.73806 | 38 ft | 16 kts | 60° |
| 2026-05-05 12:24 | 39.54779 | 2.73926 | 38 ft | 15 kts | 55° |
| 2026-05-05 12:25 | 39.54848 | 2.73996 | 38 ft | 12 kts | 346° |
| 2026-05-05 12:25 | 39.54920 | 2.73963 | 37 ft | 10 kts | 18° |
| 2026-05-05 12:25 | 39.54968 | 2.74009 | 38 ft | 7 kts | 9° |
| 2026-05-05 12:25 | 39.55014 | 2.73979 | 38 ft | 9 kts | 328° |
| 2026-05-05 12:26 | 39.55084 | 2.73922 | 38 ft | 14 kts | 328° |
| 2026-05-05 12:26 | 39.55185 | 2.73843 | 38 ft | 19 kts | 328° |
| 2026-05-05 12:26 | 39.55315 | 2.73739 | 38 ft | 24 kts | 328° |
| 2026-05-05 12:26 | 39.55465 | 2.73622 | 38 ft | 26 kts | 330° |
| 2026-05-05 12:27 | 39.55599 | 2.73519 | 38 ft | 14 kts | 329° |
| 2026-05-05 12:27 | 39.55676 | 2.73545 | 38 ft | 12 kts | 57° |
| 2026-05-05 12:27 | 39.55716 | 2.73630 | 38 ft | 10 kts | 58° |
| 2026-05-05 12:27 | 39.55758 | 2.73719 | 38 ft | 14 kts | 59° |
| 2026-05-05 12:28 | 39.55821 | 2.73853 | 36 ft | 20 kts | 58° |
| 2026-05-05 12:28 | 39.55906 | 2.74033 | 38 ft | 27 kts | 59° |
| 2026-05-05 12:28 | 39.56000 | 2.74234 | 38 ft | 14 kts | 54° |
| 2026-05-05 12:28 | 39.56081 | 2.74296 | 36 ft | 13 kts | 28° |
| 2026-05-05 12:29 | 39.56154 | 2.74346 | 38 ft | 11 kts | 28° |
| 2026-05-05 12:29 | 39.56219 | 2.74329 | 38 ft | 9 kts | 323° |
| 2026-05-05 12:29 | 39.56227 | 2.74267 | 38 ft | 8 kts | 240° |
| 2026-05-05 12:29 | 39.56211 | 2.74232 | 37 ft | 0 kts | 238° |
| 2026-05-05 12:30 | 39.56208 | 2.74225 | 37 ft | 5 kts | 238° |
| 2026-05-05 12:30 | 39.56105 | 2.74009 | 38 ft | 61 kts | 238° |
| 2026-05-05 12:30 | 39.55776 | 2.73312 | 38 ft | 119 kts | 238° |
| 2026-05-05 12:31 | 39.55260 | 2.72227 | 155 ft | 152 kts | 236° |
| 2026-05-05 12:31 | 39.54714 | 2.71062 | 771 ft | 154 kts | 238° |
| 2026-05-05 12:31 | 39.54152 | 2.69856 | 1430 ft | 157 kts | 236° |
| 2026-05-05 12:31 | 39.53576 | 2.68630 | 1982 ft | 168 kts | 237° |
| 2026-05-05 12:32 | 39.52921 | 2.67263 | 2342 ft | 187 kts | 236° |
| 2026-05-05 12:32 | 39.52218 | 2.65779 | 2759 ft | 202 kts | 237° |
| 2026-05-05 12:32 | 39.51459 | 2.64187 | 3312 ft | 209 kts | 237° |
| 2026-05-05 12:32 | 39.50694 | 2.62585 | 3961 ft | 214 kts | 237° |
| 2026-05-05 12:33 | 39.49838 | 2.60984 | 4684 ft | 215 kts | 226° |
| 2026-05-05 12:33 | 39.48624 | 2.59842 | 5307 ft | 225 kts | 208° |
| 2026-05-05 12:33 | 39.47153 | 2.58913 | 5724 ft | 245 kts | 207° |
| 2026-05-05 12:33 | 39.45552 | 2.57918 | 6225 ft | 261 kts | 207° |
| 2026-05-05 12:34 | 39.43884 | 2.56996 | 7014 ft | 265 kts | 197° |
| 2026-05-05 12:34 | 39.42012 | 2.56952 | 7772 ft | 276 kts | 168° |
| 2026-05-05 12:34 | 39.40310 | 2.58143 | 8562 ft | 286 kts | 143° |
| 2026-05-05 12:34 | 39.38828 | 2.59898 | 9397 ft | 288 kts | 140° |
| 2026-05-05 12:35 | 39.37394 | 2.61685 | 10176 ft | 291 kts | 140° |
| 2026-05-05 12:35 | 39.35928 | 2.63555 | 10797 ft | 300 kts | 139° |
| 2026-05-05 12:35 | 39.34356 | 2.65480 | 10993 ft | 322 kts | 141° |
| 2026-05-05 12:35 | 39.32656 | 2.67461 | 11225 ft | 341 kts | 142° |
| 2026-05-05 12:36 | 39.30871 | 2.69543 | 11765 ft | 349 kts | 142° |
| 2026-05-05 12:36 | 39.29067 | 2.71687 | 12415 ft | 354 kts | 141° |
| 2026-05-05 12:36 | 39.27509 | 2.74157 | 13049 ft | 368 kts | 121° |
| 2026-05-05 12:36 | 39.26813 | 2.77404 | 13685 ft | 382 kts | 96° |
| 2026-05-05 12:37 | 39.26737 | 2.80822 | 14261 ft | 387 kts | 93° |
| 2026-05-05 12:37 | 39.26728 | 2.84336 | 14844 ft | 391 kts | 92° |
| 2026-05-05 12:37 | 39.26961 | 2.87833 | 15392 ft | 398 kts | 81° |
| 2026-05-05 12:37 | 39.27732 | 2.91311 | 15946 ft | 404 kts | 69° |
| 2026-05-05 12:38 | 39.28974 | 2.94592 | 16494 ft | 408 kts | 59° |
| 2026-05-05 12:38 | 39.30386 | 2.97754 | 17045 ft | 412 kts | 59° |
| 2026-05-05 12:38 | 39.31820 | 3.00985 | 17610 ft | 416 kts | 59° |
| 2026-05-05 12:38 | 39.33269 | 3.04257 | 18136 ft | 421 kts | 59° |
| 2026-05-05 12:39 | 39.34734 | 3.07570 | 18632 ft | 424 kts | 60° |
| 2026-05-05 12:39 | 39.36193 | 3.10868 | 19109 ft | 428 kts | 60° |
| 2026-05-05 12:39 | 39.37686 | 3.14241 | 19575 ft | 432 kts | 60° |
| 2026-05-05 12:39 | 39.38675 | 3.16478 | 19885 ft | 435 kts | 60° |
| 2026-05-05 12:40 | 39.40400 | 3.19720 | 20327 ft | 438 kts | 45° |
| 2026-05-05 12:40 | 39.43441 | 3.23152 | 20929 ft | 441 kts | 36° |
| 2026-05-05 12:40 | 39.45063 | 3.24844 | 21227 ft | 444 kts | 36° |
| 2026-05-05 12:40 | 39.47459 | 3.27334 | 21671 ft | 448 kts | 36° |
| 2026-05-05 12:41 | 39.49913 | 3.29886 | 22115 ft | 452 kts | 36° |
| 2026-05-05 12:41 | 39.52363 | 3.32442 | 22547 ft | 457 kts | 36° |
| 2026-05-05 12:41 | 39.54852 | 3.35047 | 22991 ft | 461 kts | 36° |
| 2026-05-05 12:41 | 39.57343 | 3.37658 | 23426 ft | 465 kts | 36° |
| 2026-05-05 12:42 | 39.59851 | 3.40291 | 23778 ft | 468 kts | 36° |
| 2026-05-05 12:42 | 39.62398 | 3.42972 | 24131 ft | 471 kts | 36° |
| 2026-05-05 12:42 | 39.64957 | 3.45670 | 24487 ft | 474 kts | 36° |
| 2026-05-05 12:42 | 39.67530 | 3.48387 | 24837 ft | 477 kts | 36° |
| 2026-05-05 12:43 | 39.70076 | 3.51075 | 25173 ft | 479 kts | 36° |
| 2026-05-05 12:43 | 39.72678 | 3.53817 | 25504 ft | 482 kts | 36° |
| 2026-05-05 12:43 | 39.75292 | 3.56572 | 25862 ft | 484 kts | 36° |
| 2026-05-05 12:43 | 39.77896 | 3.59318 | 26178 ft | 487 kts | 36° |
| 2026-05-05 12:44 | 39.80557 | 3.62127 | 26493 ft | 490 kts | 36° |
| 2026-05-05 12:44 | 39.83206 | 3.64928 | 26804 ft | 492 kts | 36° |
| 2026-05-05 12:44 | 39.85844 | 3.67724 | 27109 ft | 495 kts | 37° |
| 2026-05-05 12:44 | 39.88532 | 3.70583 | 27413 ft | 497 kts | 37° |
| 2026-05-05 12:45 | 39.91193 | 3.73421 | 27703 ft | 500 kts | 37° |
| 2026-05-05 12:45 | 39.93897 | 3.76301 | 28000 ft | 502 kts | 37° |
| 2026-05-05 12:45 | 39.96619 | 3.79200 | 28289 ft | 505 kts | 37° |
| 2026-05-05 12:45 | 39.99361 | 3.82119 | 28567 ft | 507 kts | 37° |
| 2026-05-05 12:46 | 40.02079 | 3.85016 | 28847 ft | 509 kts | 37° |
| 2026-05-05 12:46 | 40.04827 | 3.87950 | 29120 ft | 512 kts | 37° |
| 2026-05-05 12:46 | 40.07609 | 3.90890 | 29367 ft | 513 kts | 33° |
| 2026-05-05 12:46 | 40.10625 | 3.93213 | 29603 ft | 508 kts | 20° |
| 2026-05-05 12:47 | 40.13868 | 3.95110 | 29835 ft | 509 kts | 19° |
| 2026-05-05 12:47 | 40.17121 | 3.96999 | 30057 ft | 512 kts | 19° |
| 2026-05-05 12:47 | 40.20351 | 3.98874 | 30266 ft | 514 kts | 19° |
| 2026-05-05 12:47 | 40.23648 | 4.00791 | 30443 ft | 516 kts | 19° |
| 2026-05-05 12:48 | 40.26949 | 4.02718 | 30640 ft | 518 kts | 19° |
| 2026-05-05 12:48 | 40.30212 | 4.04627 | 30848 ft | 519 kts | 19° |
| 2026-05-05 12:48 | 40.33502 | 4.06558 | 31129 ft | 518 kts | 19° |
| 2026-05-05 12:48 | 40.36797 | 4.08498 | 31399 ft | 518 kts | 19° |
| 2026-05-05 12:49 | 40.40106 | 4.10446 | 31678 ft | 517 kts | 19° |
| 2026-05-05 12:49 | 40.43353 | 4.12356 | 31938 ft | 518 kts | 19° |
| 2026-05-05 12:49 | 40.46665 | 4.14303 | 32158 ft | 519 kts | 19° |
| 2026-05-05 12:49 | 40.49940 | 4.16232 | 32406 ft | 519 kts | 19° |
| 2026-05-05 12:50 | 40.53258 | 4.18193 | 32671 ft | 519 kts | 19° |
| 2026-05-05 12:50 | 40.56523 | 4.20123 | 32907 ft | 518 kts | 19° |
| 2026-05-05 12:50 | 40.59829 | 4.22076 | 33250 ft | 516 kts | 19° |
| 2026-05-05 12:50 | 40.63059 | 4.23988 | 33546 ft | 514 kts | 19° |
| 2026-05-05 12:51 | 40.66336 | 4.25931 | 33832 ft | 514 kts | 19° |
| 2026-05-05 12:51 | 40.69605 | 4.27870 | 34083 ft | 513 kts | 19° |
| 2026-05-05 12:51 | 40.72872 | 4.29809 | 34327 ft | 512 kts | 19° |
| 2026-05-05 12:51 | 40.76099 | 4.31724 | 34571 ft | 512 kts | 19° |
| 2026-05-05 12:52 | 40.79350 | 4.33655 | 34804 ft | 511 kts | 19° |
| 2026-05-05 12:52 | 40.82557 | 4.35564 | 35034 ft | 510 kts | 19° |
| 2026-05-05 12:52 | 40.85818 | 4.37510 | 35235 ft | 510 kts | 19° |
| 2026-05-05 12:52 | 40.89062 | 4.39451 | 35418 ft | 510 kts | 19° |
| 2026-05-05 12:53 | 40.92262 | 4.41363 | 35612 ft | 510 kts | 19° |
| 2026-05-05 12:53 | 40.95504 | 4.43301 | 35813 ft | 509 kts | 19° |
| 2026-05-05 12:53 | 40.98733 | 4.45226 | 35932 ft | 508 kts | 19° |
| 2026-05-05 12:53 | 41.01966 | 4.47140 | 35950 ft | 508 kts | 19° |
| 2026-05-05 12:54 | 41.11648 | 4.52869 | 35949 ft | 509 kts | 19° |
| 2026-05-05 12:55 | 41.18100 | 4.56690 | 35948 ft | 509 kts | 19° |
| 2026-05-05 12:55 | 41.24545 | 4.60527 | 35947 ft | 507 kts | 19° |
| 2026-05-05 12:56 | 41.30979 | 4.64374 | 35957 ft | 508 kts | 19° |
| 2026-05-05 12:56 | 41.37416 | 4.68228 | 35942 ft | 508 kts | 19° |
| 2026-05-05 12:57 | 41.43862 | 4.72091 | 35937 ft | 508 kts | 19° |
| 2026-05-05 12:57 | 41.50342 | 4.75975 | 35959 ft | 509 kts | 19° |
| 2026-05-05 12:58 | 41.56789 | 4.79833 | 35947 ft | 509 kts | 19° |
| 2026-05-05 12:58 | 41.63229 | 4.83690 | 35942 ft | 509 kts | 19° |
| 2026-05-05 12:59 | 41.69725 | 4.87586 | 35973 ft | 510 kts | 19° |
| 2026-05-05 12:59 | 41.76190 | 4.91460 | 35954 ft | 510 kts | 19° |
| 2026-05-05 13:00 | 41.85909 | 4.97297 | 35931 ft | 510 kts | 19° |
| 2026-05-05 13:01 | 41.98860 | 5.05103 | 35959 ft | 510 kts | 19° |
| 2026-05-05 13:01 | 42.05142 | 5.09514 | 35964 ft | 516 kts | 32° |
| 2026-05-05 13:02 | 42.10475 | 5.16032 | 35987 ft | 520 kts | 44° |
| 2026-05-05 13:02 | 42.15555 | 5.22909 | 35982 ft | 519 kts | 43° |
| 2026-05-05 13:03 | 42.20719 | 5.29754 | 35973 ft | 519 kts | 42° |
| 2026-05-05 13:03 | 42.25835 | 5.36589 | 35938 ft | 519 kts | 43° |
| 2026-05-05 13:04 | 42.30923 | 5.43463 | 35968 ft | 518 kts | 43° |
| 2026-05-05 13:04 | 42.35997 | 5.50348 | 35964 ft | 518 kts | 43° |
| 2026-05-05 13:05 | 42.41104 | 5.57284 | 35958 ft | 518 kts | 43° |
| 2026-05-05 13:05 | 42.46179 | 5.64175 | 35958 ft | 518 kts | 43° |
| 2026-05-05 13:06 | 42.51247 | 5.71073 | 35968 ft | 518 kts | 43° |
| 2026-05-05 13:06 | 42.56334 | 5.78025 | 35951 ft | 517 kts | 43° |
| 2026-05-05 13:07 | 42.61403 | 5.84975 | 35955 ft | 517 kts | 43° |
| 2026-05-05 13:07 | 42.66450 | 5.91904 | 35959 ft | 517 kts | 43° |
| 2026-05-05 13:08 | 42.71496 | 5.98843 | 35954 ft | 517 kts | 43° |
| 2026-05-05 13:08 | 42.76555 | 6.05821 | 35956 ft | 517 kts | 43° |
| 2026-05-05 13:09 | 42.81578 | 6.12774 | 35950 ft | 517 kts | 43° |
| 2026-05-05 13:09 | 42.86739 | 6.19613 | 35976 ft | 514 kts | 37° |
| 2026-05-05 13:10 | 42.92201 | 6.25852 | 35968 ft | 513 kts | 37° |
| 2026-05-05 13:10 | 42.97655 | 6.32095 | 35965 ft | 513 kts | 37° |
| 2026-05-05 13:11 | 43.03128 | 6.38394 | 35956 ft | 513 kts | 37° |
| 2026-05-05 13:11 | 43.08556 | 6.44662 | 35984 ft | 512 kts | 37° |
| 2026-05-05 13:12 | 43.13984 | 6.50939 | 35962 ft | 511 kts | 37° |
| 2026-05-05 13:12 | 43.19407 | 6.57216 | 35973 ft | 510 kts | 38° |
| 2026-05-05 13:13 | 43.24213 | 6.64424 | 35978 ft | 513 kts | 53° |
| 2026-05-05 13:13 | 43.28395 | 6.72378 | 35983 ft | 512 kts | 53° |
| 2026-05-05 13:14 | 43.32559 | 6.80262 | 35979 ft | 512 kts | 53° |
| 2026-05-05 13:14 | 43.36731 | 6.88187 | 35965 ft | 511 kts | 53° |
| 2026-05-05 13:15 | 43.40883 | 6.96089 | 35959 ft | 511 kts | 53° |
| 2026-05-05 13:15 | 43.45065 | 7.04071 | 35999 ft | 510 kts | 54° |
| 2026-05-05 13:16 | 43.49182 | 7.11959 | 35999 ft | 509 kts | 54° |
| 2026-05-05 13:16 | 43.53320 | 7.19917 | 35989 ft | 508 kts | 54° |
| 2026-05-05 13:17 | 43.57421 | 7.27808 | 35978 ft | 508 kts | 54° |
| 2026-05-05 13:17 | 43.61514 | 7.35711 | 36000 ft | 507 kts | 54° |
| 2026-05-05 13:18 | 43.65610 | 7.43661 | 35997 ft | 506 kts | 54° |
| 2026-05-05 13:18 | 43.69689 | 7.51589 | 35986 ft | 505 kts | 54° |
| 2026-05-05 13:19 | 43.73752 | 7.59494 | 35956 ft | 505 kts | 54° |
| 2026-05-05 13:19 | 43.77793 | 7.67383 | 35971 ft | 504 kts | 54° |
| 2026-05-05 13:20 | 43.82046 | 7.75106 | 35985 ft | 502 kts | 45° |
| 2026-05-05 13:20 | 43.87322 | 7.81299 | 35974 ft | 499 kts | 35° |
| 2026-05-05 13:21 | 43.92848 | 7.87204 | 35979 ft | 498 kts | 33° |
| 2026-05-05 13:21 | 43.98850 | 7.91762 | 36000 ft | 490 kts | 18° |
| 2026-05-05 13:22 | 44.05154 | 7.95253 | 35988 ft | 489 kts | 18° |
| 2026-05-05 13:22 | 44.11481 | 7.98786 | 35975 ft | 488 kts | 18° |
| 2026-05-05 13:23 | 44.17741 | 8.02303 | 36005 ft | 487 kts | 19° |
| 2026-05-05 13:23 | 44.24015 | 8.05831 | 36001 ft | 487 kts | 19° |
| 2026-05-05 13:24 | 44.30287 | 8.09357 | 35983 ft | 486 kts | 19° |
| 2026-05-05 13:24 | 44.36575 | 8.12892 | 35981 ft | 486 kts | 19° |
| 2026-05-05 13:25 | 44.42850 | 8.16441 | 35969 ft | 487 kts | 19° |
| 2026-05-05 13:25 | 44.49126 | 8.20004 | 35968 ft | 487 kts | 19° |
| 2026-05-05 13:26 | 44.55413 | 8.23574 | 35965 ft | 487 kts | 19° |
| 2026-05-05 13:26 | 44.61686 | 8.27143 | 35965 ft | 488 kts | 19° |
| 2026-05-05 13:27 | 44.66937 | 8.30147 | 35967 ft | 488 kts | 19° |
| 2026-05-05 13:27 | 44.73208 | 8.33735 | 35979 ft | 488 kts | 19° |
| 2026-05-05 13:28 | 44.79534 | 8.37357 | 35954 ft | 489 kts | 19° |
| 2026-05-05 13:28 | 44.85827 | 8.40975 | 35966 ft | 489 kts | 19° |
| 2026-05-05 13:29 | 44.92106 | 8.44587 | 35984 ft | 489 kts | 19° |
| 2026-05-05 13:29 | 44.98390 | 8.48211 | 35976 ft | 490 kts | 19° |
| 2026-05-05 13:30 | 45.04721 | 8.51877 | 35985 ft | 490 kts | 19° |
| 2026-05-05 13:30 | 45.11009 | 8.55529 | 35990 ft | 490 kts | 19° |
| 2026-05-05 13:31 | 45.17324 | 8.59200 | 36012 ft | 490 kts | 19° |
| 2026-05-05 13:31 | 45.23610 | 8.62861 | 36024 ft | 490 kts | 19° |
| 2026-05-05 13:32 | 45.29924 | 8.66553 | 36034 ft | 490 kts | 19° |
| 2026-05-05 13:32 | 45.36227 | 8.70245 | 36032 ft | 490 kts | 19° |
| 2026-05-05 13:33 | 45.42514 | 8.73934 | 36030 ft | 490 kts | 19° |
| 2026-05-05 13:33 | 45.48807 | 8.77633 | 36009 ft | 490 kts | 19° |
| 2026-05-05 13:34 | 45.55145 | 8.81375 | 36001 ft | 491 kts | 19° |
| 2026-05-05 13:34 | 45.61442 | 8.85092 | 36001 ft | 491 kts | 19° |
| 2026-05-05 13:35 | 45.67765 | 8.88853 | 36003 ft | 491 kts | 20° |
| 2026-05-05 13:35 | 45.74070 | 8.92602 | 36012 ft | 491 kts | 19° |
| 2026-05-05 13:36 | 45.80364 | 8.96341 | 36023 ft | 491 kts | 19° |
| 2026-05-05 13:36 | 45.86688 | 9.00115 | 36033 ft | 491 kts | 20° |
| 2026-05-05 13:37 | 45.92973 | 9.03878 | 36036 ft | 490 kts | 19° |
| 2026-05-05 13:37 | 45.99523 | 9.06209 | 36030 ft | 480 kts | 0° |
| 2026-05-05 13:38 | 46.06085 | 9.05891 | 36033 ft | 472 kts | 348° |
| 2026-05-05 13:38 | 46.12600 | 9.04817 | 36021 ft | 473 kts | 348° |
| 2026-05-05 13:39 | 46.19161 | 9.03778 | 36021 ft | 473 kts | 349° |
| 2026-05-05 13:39 | 46.25711 | 9.02909 | 36024 ft | 474 kts | 350° |
| 2026-05-05 13:40 | 46.32272 | 9.02097 | 36015 ft | 474 kts | 350° |
| 2026-05-05 13:40 | 46.38878 | 9.01236 | 35997 ft | 474 kts | 349° |
| 2026-05-05 13:41 | 46.45419 | 9.00346 | 35983 ft | 474 kts | 349° |
| 2026-05-05 13:41 | 46.51987 | 8.99455 | 35966 ft | 475 kts | 349° |
| 2026-05-05 13:42 | 46.58584 | 8.98561 | 35961 ft | 474 kts | 349° |
| 2026-05-05 13:42 | 46.65142 | 8.97675 | 35946 ft | 474 kts | 350° |
| 2026-05-05 13:43 | 46.71736 | 8.96788 | 35927 ft | 475 kts | 350° |
| 2026-05-05 13:43 | 46.78287 | 8.95900 | 35958 ft | 475 kts | 350° |
| 2026-05-05 13:44 | 46.84849 | 8.95008 | 35923 ft | 473 kts | 351° |
| 2026-05-05 13:44 | 46.91430 | 8.94105 | 35899 ft | 474 kts | 350° |
| 2026-05-05 13:45 | 46.97969 | 8.93204 | 35883 ft | 474 kts | 350° |
| 2026-05-05 13:45 | 47.04529 | 8.92303 | 35887 ft | 474 kts | 351° |
| 2026-05-05 13:46 | 47.11099 | 8.91411 | 35682 ft | 471 kts | 351° |
| 2026-05-05 13:46 | 47.14372 | 8.90964 | 34988 ft | 472 kts | 351° |
| 2026-05-05 13:46 | 47.17645 | 8.90511 | 34268 ft | 473 kts | 351° |
| 2026-05-05 13:47 | 47.20901 | 8.90054 | 33621 ft | 473 kts | 351° |
| 2026-05-05 13:47 | 47.24185 | 8.89597 | 33037 ft | 469 kts | 351° |
| 2026-05-05 13:47 | 47.27442 | 8.89460 | 32526 ft | 467 kts | 1° |
| 2026-05-05 13:47 | 47.30622 | 8.90040 | 32011 ft | 464 kts | 11° |
| 2026-05-05 13:48 | 47.33720 | 8.91331 | 31504 ft | 460 kts | 19° |
| 2026-05-05 13:48 | 47.36748 | 8.92875 | 30984 ft | 456 kts | 19° |
| 2026-05-05 13:48 | 47.39754 | 8.94366 | 30406 ft | 455 kts | 19° |
| 2026-05-05 13:48 | 47.42766 | 8.95834 | 29887 ft | 452 kts | 19° |
| 2026-05-05 13:49 | 47.45714 | 8.97267 | 29318 ft | 448 kts | 19° |
| 2026-05-05 13:49 | 47.48665 | 8.98708 | 28760 ft | 444 kts | 19° |
| 2026-05-05 13:49 | 47.51594 | 9.00146 | 28236 ft | 440 kts | 19° |
| 2026-05-05 13:49 | 47.54490 | 9.01581 | 27718 ft | 436 kts | 19° |
| 2026-05-05 13:50 | 47.57357 | 9.03007 | 27061 ft | 435 kts | 19° |
| 2026-05-05 13:50 | 47.60095 | 9.04371 | 26384 ft | 437 kts | 19° |
| 2026-05-05 13:50 | 47.63015 | 9.05823 | 25818 ft | 434 kts | 19° |
| 2026-05-05 13:50 | 47.65890 | 9.07255 | 25272 ft | 432 kts | 19° |
| 2026-05-05 13:51 | 47.68734 | 9.08678 | 24780 ft | 429 kts | 19° |
| 2026-05-05 13:51 | 47.71550 | 9.10086 | 24293 ft | 426 kts | 19° |
| 2026-05-05 13:51 | 47.74362 | 9.11491 | 23688 ft | 426 kts | 19° |
| 2026-05-05 13:51 | 47.77143 | 9.12887 | 23018 ft | 427 kts | 19° |
| 2026-05-05 13:52 | 47.79952 | 9.14301 | 22429 ft | 424 kts | 19° |
| 2026-05-05 13:52 | 47.82754 | 9.15711 | 21895 ft | 421 kts | 19° |
| 2026-05-05 13:52 | 47.85521 | 9.17098 | 21394 ft | 418 kts | 19° |
| 2026-05-05 13:52 | 47.88263 | 9.18472 | 20622 ft | 422 kts | 19° |
| 2026-05-05 13:53 | 47.91053 | 9.19874 | 20019 ft | 421 kts | 18° |
| 2026-05-05 13:53 | 47.93842 | 9.21277 | 19492 ft | 419 kts | 18° |
| 2026-05-05 13:53 | 47.96563 | 9.22649 | 19006 ft | 416 kts | 18° |
| 2026-05-05 13:53 | 47.99320 | 9.24041 | 18512 ft | 413 kts | 18° |
| 2026-05-05 13:54 | 48.02041 | 9.25420 | 17912 ft | 413 kts | 18° |
| 2026-05-05 13:54 | 48.04763 | 9.26800 | 17295 ft | 412 kts | 18° |
| 2026-05-05 13:54 | 48.07444 | 9.28162 | 16762 ft | 409 kts | 18° |
| 2026-05-05 13:54 | 48.10145 | 9.29537 | 16233 ft | 406 kts | 18° |
| 2026-05-05 13:55 | 48.12780 | 9.30879 | 15738 ft | 403 kts | 18° |
| 2026-05-05 13:55 | 48.15424 | 9.32223 | 15250 ft | 399 kts | 17° |
| 2026-05-05 13:55 | 48.18132 | 9.33112 | 14653 ft | 396 kts | 4° |
| 2026-05-05 13:55 | 48.20876 | 9.33552 | 14108 ft | 394 kts | 4° |
| 2026-05-05 13:56 | 48.23572 | 9.33978 | 13615 ft | 391 kts | 4° |
| 2026-05-05 13:56 | 48.26275 | 9.34405 | 13036 ft | 388 kts | 4° |
| 2026-05-05 13:56 | 48.28952 | 9.34832 | 12440 ft | 385 kts | 5° |
| 2026-05-05 13:56 | 48.31613 | 9.35264 | 11834 ft | 384 kts | 5° |
| 2026-05-05 13:57 | 48.34263 | 9.35698 | 11236 ft | 382 kts | 5° |
| 2026-05-05 13:57 | 48.36854 | 9.36327 | 10641 ft | 380 kts | 14° |
| 2026-05-05 13:57 | 48.39327 | 9.37756 | 10047 ft | 379 kts | 24° |
| 2026-05-05 13:57 | 48.41736 | 9.39386 | 9399 ft | 378 kts | 24° |
| 2026-05-05 13:58 | 48.44052 | 9.40959 | 9178 ft | 354 kts | 24° |
| 2026-05-05 13:58 | 48.46198 | 9.42422 | 9170 ft | 322 kts | 24° |
| 2026-05-05 13:58 | 48.48190 | 9.43781 | 9168 ft | 311 kts | 24° |
| 2026-05-05 13:58 | 48.50166 | 9.45126 | 9155 ft | 309 kts | 24° |
| 2026-05-05 13:59 | 48.54041 | 9.47754 | 8022 ft | 300 kts | 24° |
| 2026-05-05 13:59 | 48.55916 | 9.49016 | 7503 ft | 297 kts | 24° |
| 2026-05-05 14:00 | 48.59635 | 9.51511 | 6398 ft | 288 kts | 24° |
| 2026-05-05 14:00 | 48.60873 | 9.52341 | 5946 ft | 286 kts | 24° |
| 2026-05-05 14:00 | 48.63264 | 9.53956 | 5079 ft | 281 kts | 24° |
| 2026-05-05 14:00 | 48.65075 | 9.54861 | 4478 ft | 277 kts | 4° |
| 2026-05-05 14:01 | 48.66940 | 9.54473 | 4188 ft | 267 kts | 338° |
| 2026-05-05 14:01 | 48.68623 | 9.53431 | 4068 ft | 253 kts | 334° |
| 2026-05-05 14:01 | 48.70196 | 9.52377 | 3973 ft | 239 kts | 333° |
| 2026-05-05 14:01 | 48.71553 | 9.51071 | 3979 ft | 225 kts | 315° |
| 2026-05-05 14:02 | 48.72512 | 9.49304 | 3976 ft | 216 kts | 298° |
| 2026-05-05 14:02 | 48.73063 | 9.47216 | 4006 ft | 206 kts | 281° |
| 2026-05-05 14:02 | 48.73187 | 9.45148 | 3911 ft | 194 kts | 265° |
| 2026-05-05 14:02 | 48.72940 | 9.43197 | 3706 ft | 186 kts | 252° |
| 2026-05-05 14:03 | 48.72589 | 9.41329 | 3479 ft | 180 kts | 253° |
| 2026-05-05 14:03 | 48.72249 | 9.39516 | 3248 ft | 177 kts | 254° |
| 2026-05-05 14:03 | 48.71916 | 9.37743 | 3018 ft | 172 kts | 255° |
| 2026-05-05 14:03 | 48.71599 | 9.36053 | 2822 ft | 165 kts | 254° |
| 2026-05-05 14:04 | 48.71294 | 9.34432 | 2595 ft | 154 kts | 254° |
| 2026-05-05 14:04 | 48.71011 | 9.32928 | 2418 ft | 142 kts | 255° |
| 2026-05-05 14:04 | 48.70744 | 9.31510 | 2234 ft | 138 kts | 256° |
| 2026-05-05 14:04 | 48.70480 | 9.30106 | 2027 ft | 138 kts | 254° |
| 2026-05-05 14:05 | 48.70216 | 9.28703 | 1835 ft | 139 kts | 254° |
| 2026-05-05 14:05 | 48.69955 | 9.27308 | 1639 ft | 138 kts | 255° |
| 2026-05-05 14:05 | 48.69693 | 9.25930 | 1444 ft | 135 kts | 255° |
| 2026-05-05 14:05 | 48.69432 | 9.24547 | 1279 ft | 136 kts | 255° |
| 2026-05-05 14:06 | 48.69182 | 9.23215 | 1215 ft | 119 kts | 255° |
| 2026-05-05 14:06 | 48.68995 | 9.22232 | 1247 ft | 79 kts | 254° |
| 2026-05-05 14:06 | 48.68865 | 9.21539 | 1252 ft | 58 kts | 253° |
| 2026-05-05 14:06 | 48.68823 | 9.21168 | 1266 ft | 23 kts | 268° |
| 2026-05-05 14:07 | 48.68840 | 9.20957 | 1266 ft | 17 kts | 282° |
| 2026-05-05 14:07 | 48.68864 | 9.20806 | 1272 ft | 11 kts | 284° |
| 2026-05-05 14:07 | 48.68878 | 9.20705 | 1275 ft | 9 kts | 269° |
| 2026-05-05 14:07 | 48.68865 | 9.20622 | 1277 ft | 8 kts | 254° |
| 2026-05-05 14:08 | 48.68852 | 9.20555 | 1278 ft | 6 kts | 254° |
| 2026-05-05 14:08 | 48.68839 | 9.20486 | 1280 ft | 9 kts | 254° |
| 2026-05-05 14:08 | 48.68819 | 9.20381 | 1282 ft | 12 kts | 253° |
| 2026-05-05 14:08 | 48.68791 | 9.20239 | 1286 ft | 16 kts | 254° |
| 2026-05-05 14:09 | 48.68759 | 9.20068 | 1290 ft | 17 kts | 254° |
| 2026-05-05 14:09 | 48.68790 | 9.19954 | 1295 ft | 11 kts | 315° |
| 2026-05-05 14:09 | 48.68837 | 9.19897 | 1299 ft | 7 kts | 335° |
| 2026-05-05 14:09 | 48.68877 | 9.19877 | 1302 ft | 6 kts | 338° |
| 2026-05-05 14:10 | 48.68889 | 9.19818 | 1304 ft | 8 kts | 260° |
| 2026-05-05 14:10 | 48.68871 | 9.19720 | 1307 ft | 10 kts | 255° |
| 2026-05-05 14:10 | 48.68850 | 9.19610 | 1309 ft | 12 kts | 253° |
| 2026-05-05 14:10 | 48.68825 | 9.19481 | 1312 ft | 13 kts | 254° |
| 2026-05-05 14:11 | 48.68826 | 9.19390 | 1314 ft | 6 kts | 322° |
| 2026-05-05 14:11 | 48.68852 | 9.19373 | 1315 ft | 3 kts | 344° |
| 2026-05-05 14:11 | 48.68871 | 9.19365 | 1315 ft | 4 kts | 343° |
| 2026-05-05 14:11 | 48.68884 | 9.19359 | 1315 ft | 0 kts | 343° |